sensor_id;sensor_type;location;lat;lon;timestamp;P1;durP1;ratioP1;P2;durP2;ratioP2
15929;SDS011;8064;51.142;4.780;2022-11-03T00:00:58;12.20;;;2.73;;
15929;SDS011;8064;51.142;4.780;2022-11-03T00:03:25;9.83;;;2.80;;
15929;SDS011;8064;51.142;4.780;2022-11-03T00:05:51;9.83;;;2.40;;
15929;SDS011;8064;51.142;4.780;2022-11-03T00:08:29;10.10;;;2.33;;
15929;SDS011;8064;51.142;4.780;2022-11-03T00:11:11;12.83;;;2.73;;
15929;SDS011;8064;51.142;4.780;2022-11-03T00:13:39;9.00;;;2.70;;
15929;SDS011;8064;51.142;4.780;2022-11-03T00:16:08;10.53;;;3.23;;
15929;SDS011;8064;51.142;4.780;2022-11-03T00:18:35;14.43;;;3.10;;
15929;SDS011;8064;51.142;4.780;2022-11-03T00:21:03;8.33;;;2.33;;
15929;SDS011;8064;51.142;4.780;2022-11-03T00:23:34;7.40;;;2.30;;
15929;SDS011;8064;51.142;4.780;2022-11-03T00:26:08;11.80;;;3.23;;
15929;SDS011;8064;51.142;4.780;2022-11-03T00:28:37;10.20;;;2.57;;
15929;SDS011;8064;51.142;4.780;2022-11-03T00:31:22;10.57;;;2.87;;
15929;SDS011;8064;51.142;4.780;2022-11-03T00:33:49;10.97;;;2.90;;
15929;SDS011;8064;51.142;4.780;2022-11-03T00:36:20;9.93;;;2.87;;
15929;SDS011;8064;51.142;4.780;2022-11-03T00:38:46;8.17;;;2.30;;
15929;SDS011;8064;51.142;4.780;2022-11-03T00:41:12;11.40;;;2.40;;
15929;SDS011;8064;51.142;4.780;2022-11-03T00:43:39;10.53;;;2.50;;
15929;SDS011;8064;51.142;4.780;2022-11-03T00:46:05;9.33;;;2.70;;
15929;SDS011;8064;51.142;4.780;2022-11-03T00:48:33;9.87;;;2.50;;
15929;SDS011;8064;51.142;4.780;2022-11-03T00:53:32;6.60;;;2.17;;
15929;SDS011;8064;51.142;4.780;2022-11-03T00:56:00;10.87;;;2.50;;
15929;SDS011;8064;51.142;4.780;2022-11-03T00:58:26;12.13;;;2.70;;
15929;SDS011;8064;51.142;4.780;2022-11-03T01:00:59;9.43;;;2.60;;
15929;SDS011;8064;51.142;4.780;2022-11-03T01:03:26;10.77;;;2.63;;
15929;SDS011;8064;51.142;4.780;2022-11-03T01:05:51;8.13;;;2.47;;
15929;SDS011;8064;51.142;4.780;2022-11-03T01:08:35;8.77;;;2.57;;
15929;SDS011;8064;51.142;4.780;2022-11-03T01:11:08;11.57;;;2.80;;
15929;SDS011;8064;51.142;4.780;2022-11-03T01:14:00;12.13;;;2.63;;
15929;SDS011;8064;51.142;4.780;2022-11-03T01:16:27;9.93;;;2.57;;
15929;SDS011;8064;51.142;4.780;2022-11-03T01:18:54;10.13;;;2.40;;
15929;SDS011;8064;51.142;4.780;2022-11-03T01:21:20;8.63;;;2.90;;
15929;SDS011;8064;51.142;4.780;2022-11-03T01:23:46;11.60;;;2.50;;
15929;SDS011;8064;51.142;4.780;2022-11-03T01:26:12;10.73;;;2.60;;
15929;SDS011;8064;51.142;4.780;2022-11-03T01:28:39;10.23;;;2.33;;
15929;SDS011;8064;51.142;4.780;2022-11-03T01:31:07;11.73;;;2.43;;
15929;SDS011;8064;51.142;4.780;2022-11-03T01:33:45;9.17;;;2.03;;
15929;SDS011;8064;51.142;4.780;2022-11-03T01:36:13;16.30;;;2.87;;
15929;SDS011;8064;51.142;4.780;2022-11-03T01:38:40;10.47;;;2.77;;
15929;SDS011;8064;51.142;4.780;2022-11-03T01:41:07;6.87;;;2.00;;
15929;SDS011;8064;51.142;4.780;2022-11-03T01:43:37;9.57;;;2.50;;
15929;SDS011;8064;51.142;4.780;2022-11-03T01:48:35;7.23;;;2.10;;
15929;SDS011;8064;51.142;4.780;2022-11-03T01:51:06;10.63;;;2.30;;
15929;SDS011;8064;51.142;4.780;2022-11-03T01:53:34;8.90;;;2.60;;
15929;SDS011;8064;51.142;4.780;2022-11-03T01:56:02;10.97;;;2.20;;
15929;SDS011;8064;51.142;4.780;2022-11-03T01:58:29;13.17;;;2.47;;
15929;SDS011;8064;51.142;4.780;2022-11-03T02:00:58;11.03;;;2.77;;
15929;SDS011;8064;51.142;4.780;2022-11-03T02:03:25;9.27;;;2.27;;
15929;SDS011;8064;51.142;4.780;2022-11-03T02:05:55;10.30;;;2.33;;
15929;SDS011;8064;51.142;4.780;2022-11-03T02:08:25;10.00;;;2.10;;
15929;SDS011;8064;51.142;4.780;2022-11-03T02:10:58;7.03;;;2.27;;
15929;SDS011;8064;51.142;4.780;2022-11-03T02:13:25;8.17;;;2.50;;
15929;SDS011;8064;51.142;4.780;2022-11-03T02:15:52;8.90;;;2.10;;
15929;SDS011;8064;51.142;4.780;2022-11-03T02:18:23;9.67;;;2.57;;
15929;SDS011;8064;51.142;4.780;2022-11-03T02:21:14;8.23;;;2.10;;
15929;SDS011;8064;51.142;4.780;2022-11-03T02:24:23;13.77;;;2.43;;
15929;SDS011;8064;51.142;4.780;2022-11-03T02:26:58;10.73;;;2.47;;
15929;SDS011;8064;51.142;4.780;2022-11-03T02:29:24;8.83;;;2.60;;
15929;SDS011;8064;51.142;4.780;2022-11-03T02:31:54;12.13;;;3.07;;
15929;SDS011;8064;51.142;4.780;2022-11-03T02:37:24;11.03;;;2.13;;
15929;SDS011;8064;51.142;4.780;2022-11-03T02:39:55;7.77;;;2.60;;
15929;SDS011;8064;51.142;4.780;2022-11-03T02:42:34;8.90;;;2.33;;
15929;SDS011;8064;51.142;4.780;2022-11-03T02:45:02;12.63;;;2.70;;
15929;SDS011;8064;51.142;4.780;2022-11-03T02:47:31;8.57;;;2.40;;
15929;SDS011;8064;51.142;4.780;2022-11-03T02:49:58;7.83;;;2.57;;
15929;SDS011;8064;51.142;4.780;2022-11-03T02:52:38;10.83;;;2.37;;
15929;SDS011;8064;51.142;4.780;2022-11-03T02:55:16;8.00;;;2.10;;
15929;SDS011;8064;51.142;4.780;2022-11-03T02:57:47;8.40;;;2.37;;
15929;SDS011;8064;51.142;4.780;2022-11-03T03:00:30;7.93;;;2.43;;
15929;SDS011;8064;51.142;4.780;2022-11-03T03:03:07;8.77;;;2.77;;
15929;SDS011;8064;51.142;4.780;2022-11-03T03:06:02;13.53;;;3.33;;
15929;SDS011;8064;51.142;4.780;2022-11-03T03:08:35;11.83;;;3.00;;
15929;SDS011;8064;51.142;4.780;2022-11-03T03:11:06;9.63;;;2.87;;
15929;SDS011;8064;51.142;4.780;2022-11-03T03:13:35;10.27;;;2.60;;
15929;SDS011;8064;51.142;4.780;2022-11-03T03:18:46;9.00;;;2.37;;
15929;SDS011;8064;51.142;4.780;2022-11-03T03:21:38;6.47;;;2.13;;
15929;SDS011;8064;51.142;4.780;2022-11-03T03:24:09;7.93;;;2.40;;
15929;SDS011;8064;51.142;4.780;2022-11-03T03:26:41;9.23;;;2.87;;
15929;SDS011;8064;51.142;4.780;2022-11-03T03:29:14;11.87;;;2.53;;
15929;SDS011;8064;51.142;4.780;2022-11-03T03:31:50;8.63;;;2.07;;
15929;SDS011;8064;51.142;4.780;2022-11-03T03:34:21;8.97;;;2.60;;
15929;SDS011;8064;51.142;4.780;2022-11-03T03:36:49;11.63;;;2.23;;
15929;SDS011;8064;51.142;4.780;2022-11-03T03:39:17;10.17;;;2.80;;
15929;SDS011;8064;51.142;4.780;2022-11-03T03:41:44;10.77;;;2.60;;
15929;SDS011;8064;51.142;4.780;2022-11-03T03:44:12;6.70;;;2.20;;
15929;SDS011;8064;51.142;4.780;2022-11-03T03:46:47;10.23;;;2.27;;
15929;SDS011;8064;51.142;4.780;2022-11-03T03:49:19;9.50;;;2.73;;
15929;SDS011;8064;51.142;4.780;2022-11-03T03:51:45;9.60;;;2.50;;
15929;SDS011;8064;51.142;4.780;2022-11-03T03:54:12;9.90;;;2.33;;
15929;SDS011;8064;51.142;4.780;2022-11-03T03:56:40;11.70;;;2.40;;
15929;SDS011;8064;51.142;4.780;2022-11-03T03:59:09;13.13;;;2.53;;
15929;SDS011;8064;51.142;4.780;2022-11-03T04:01:35;10.30;;;2.77;;
15929;SDS011;8064;51.142;4.780;2022-11-03T04:04:00;8.93;;;2.30;;
15929;SDS011;8064;51.142;4.780;2022-11-03T04:06:26;10.47;;;2.40;;
15929;SDS011;8064;51.142;4.780;2022-11-03T04:08:52;10.43;;;2.27;;
15929;SDS011;8064;51.142;4.780;2022-11-03T04:11:17;8.93;;;2.00;;
15929;SDS011;8064;51.142;4.780;2022-11-03T04:14:01;10.03;;;3.07;;
15929;SDS011;8064;51.142;4.780;2022-11-03T04:16:46;9.70;;;2.30;;
15929;SDS011;8064;51.142;4.780;2022-11-03T04:19:30;6.60;;;2.00;;
15929;SDS011;8064;51.142;4.780;2022-11-03T04:22:14;8.60;;;2.50;;
15929;SDS011;8064;51.142;4.780;2022-11-03T04:24:41;7.43;;;2.10;;
15929;SDS011;8064;51.142;4.780;2022-11-03T04:29:42;7.53;;;2.40;;
15929;SDS011;8064;51.142;4.780;2022-11-03T04:32:15;9.37;;;2.40;;
15929;SDS011;8064;51.142;4.780;2022-11-03T04:34:42;8.33;;;2.20;;
15929;SDS011;8064;51.142;4.780;2022-11-03T04:37:13;9.60;;;2.93;;
15929;SDS011;8064;51.142;4.780;2022-11-03T04:39:40;10.23;;;2.47;;
15929;SDS011;8064;51.142;4.780;2022-11-03T04:44:42;8.67;;;2.23;;
15929;SDS011;8064;51.142;4.780;2022-11-03T04:47:10;10.07;;;2.63;;
15929;SDS011;8064;51.142;4.780;2022-11-03T04:49:37;6.87;;;2.30;;
15929;SDS011;8064;51.142;4.780;2022-11-03T04:52:05;9.10;;;2.20;;
15929;SDS011;8064;51.142;4.780;2022-11-03T04:54:38;8.13;;;2.47;;
15929;SDS011;8064;51.142;4.780;2022-11-03T04:57:07;11.17;;;2.20;;
15929;SDS011;8064;51.142;4.780;2022-11-03T04:59:36;10.17;;;2.30;;
15929;SDS011;8064;51.142;4.780;2022-11-03T05:02:02;7.43;;;2.17;;
15929;SDS011;8064;51.142;4.780;2022-11-03T05:04:33;11.27;;;2.53;;
15929;SDS011;8064;51.142;4.780;2022-11-03T05:06:59;6.00;;;2.00;;
15929;SDS011;8064;51.142;4.780;2022-11-03T05:09:25;10.57;;;2.10;;
15929;SDS011;8064;51.142;4.780;2022-11-03T05:11:54;6.17;;;2.23;;
15929;SDS011;8064;51.142;4.780;2022-11-03T05:14:25;10.57;;;2.47;;
15929;SDS011;8064;51.142;4.780;2022-11-03T05:16:55;11.40;;;2.30;;
15929;SDS011;8064;51.142;4.780;2022-11-03T05:21:51;9.53;;;2.40;;
15929;SDS011;8064;51.142;4.780;2022-11-03T05:24:20;12.00;;;2.17;;
15929;SDS011;8064;51.142;4.780;2022-11-03T05:26:49;8.43;;;2.23;;
15929;SDS011;8064;51.142;4.780;2022-11-03T05:29:31;8.63;;;2.50;;
15929;SDS011;8064;51.142;4.780;2022-11-03T05:32:01;7.53;;;2.27;;
15929;SDS011;8064;51.142;4.780;2022-11-03T05:34:34;9.50;;;2.93;;
15929;SDS011;8064;51.142;4.780;2022-11-03T05:39:56;8.10;;;2.27;;
15929;SDS011;8064;51.142;4.780;2022-11-03T05:42:31;5.80;;;2.60;;
15929;SDS011;8064;51.142;4.780;2022-11-03T05:45:01;9.03;;;2.50;;
15929;SDS011;8064;51.142;4.780;2022-11-03T05:47:35;8.03;;;2.60;;
15929;SDS011;8064;51.142;4.780;2022-11-03T05:50:10;7.53;;;2.03;;
15929;SDS011;8064;51.142;4.780;2022-11-03T05:52:42;9.27;;;2.50;;
15929;SDS011;8064;51.142;4.780;2022-11-03T05:55:17;7.30;;;2.20;;
15929;SDS011;8064;51.142;4.780;2022-11-03T05:57:55;7.60;;;2.53;;
15929;SDS011;8064;51.142;4.780;2022-11-03T06:00:27;7.67;;;2.17;;
15929;SDS011;8064;51.142;4.780;2022-11-03T06:02:55;9.33;;;2.60;;
15929;SDS011;8064;51.142;4.780;2022-11-03T06:05:23;8.67;;;2.40;;
15929;SDS011;8064;51.142;4.780;2022-11-03T06:07:50;11.57;;;2.93;;
15929;SDS011;8064;51.142;4.780;2022-11-03T06:12:52;9.20;;;2.50;;
15929;SDS011;8064;51.142;4.780;2022-11-03T06:15:25;9.77;;;2.47;;
15929;SDS011;8064;51.142;4.780;2022-11-03T06:17:53;7.53;;;2.53;;
15929;SDS011;8064;51.142;4.780;2022-11-03T06:20:20;6.90;;;2.53;;
15929;SDS011;8064;51.142;4.780;2022-11-03T06:22:47;12.97;;;3.07;;
15929;SDS011;8064;51.142;4.780;2022-11-03T06:27:59;9.07;;;2.20;;
15929;SDS011;8064;51.142;4.780;2022-11-03T06:30:28;8.13;;;2.40;;
15929;SDS011;8064;51.142;4.780;2022-11-03T06:32:59;8.83;;;2.23;;
15929;SDS011;8064;51.142;4.780;2022-11-03T06:35:30;8.63;;;2.00;;
15929;SDS011;8064;51.142;4.780;2022-11-03T06:37:56;6.47;;;2.00;;
15929;SDS011;8064;51.142;4.780;2022-11-03T06:40:29;14.17;;;2.57;;
15929;SDS011;8064;51.142;4.780;2022-11-03T06:42:58;9.17;;;2.33;;
15929;SDS011;8064;51.142;4.780;2022-11-03T06:45:25;10.10;;;2.30;;
15929;SDS011;8064;51.142;4.780;2022-11-03T06:47:51;11.53;;;2.47;;
15929;SDS011;8064;51.142;4.780;2022-11-03T06:50:23;7.17;;;2.23;;
15929;SDS011;8064;51.142;4.780;2022-11-03T06:52:52;6.87;;;2.03;;
15929;SDS011;8064;51.142;4.780;2022-11-03T06:55:23;9.40;;;3.00;;
15929;SDS011;8064;51.142;4.780;2022-11-03T06:58:06;7.33;;;2.30;;
15929;SDS011;8064;51.142;4.780;2022-11-03T07:00:41;13.57;;;2.37;;
15929;SDS011;8064;51.142;4.780;2022-11-03T07:08:52;9.83;;;2.23;;
15929;SDS011;8064;51.142;4.780;2022-11-03T07:11:21;13.80;;;3.13;;
15929;SDS011;8064;51.142;4.780;2022-11-03T07:16:47;7.83;;;2.70;;
15929;SDS011;8064;51.142;4.780;2022-11-03T07:19:20;10.10;;;2.30;;
15929;SDS011;8064;51.142;4.780;2022-11-03T07:22:05;7.53;;;2.03;;
15929;SDS011;8064;51.142;4.780;2022-11-03T07:24:40;9.80;;;2.50;;
15929;SDS011;8064;51.142;4.780;2022-11-03T07:29:41;12.17;;;2.53;;
15929;SDS011;8064;51.142;4.780;2022-11-03T07:32:11;9.10;;;2.13;;
15929;SDS011;8064;51.142;4.780;2022-11-03T07:34:43;7.40;;;2.40;;
15929;SDS011;8064;51.142;4.780;2022-11-03T07:37:29;8.67;;;2.40;;
15929;SDS011;8064;51.142;4.780;2022-11-03T07:39:57;6.73;;;2.40;;
15929;SDS011;8064;51.142;4.780;2022-11-03T07:42:23;8.33;;;2.07;;
15929;SDS011;8064;51.142;4.780;2022-11-03T07:44:51;7.27;;;2.20;;
15929;SDS011;8064;51.142;4.780;2022-11-03T07:47:18;8.30;;;2.20;;
15929;SDS011;8064;51.142;4.780;2022-11-03T07:49:46;7.80;;;2.10;;
15929;SDS011;8064;51.142;4.780;2022-11-03T07:52:13;5.77;;;1.90;;
15929;SDS011;8064;51.142;4.780;2022-11-03T07:54:43;11.00;;;2.23;;
15929;SDS011;8064;51.142;4.780;2022-11-03T07:57:11;9.83;;;1.83;;
15929;SDS011;8064;51.142;4.780;2022-11-03T07:59:48;8.83;;;2.30;;
15929;SDS011;8064;51.142;4.780;2022-11-03T08:05:08;9.10;;;2.63;;
15929;SDS011;8064;51.142;4.780;2022-11-03T08:07:34;14.37;;;2.80;;
15929;SDS011;8064;51.142;4.780;2022-11-03T08:10:00;7.13;;;2.60;;
15929;SDS011;8064;51.142;4.780;2022-11-03T08:12:26;10.10;;;2.57;;
15929;SDS011;8064;51.142;4.780;2022-11-03T08:14:52;9.03;;;2.23;;
15929;SDS011;8064;51.142;4.780;2022-11-03T08:17:18;8.07;;;2.10;;
15929;SDS011;8064;51.142;4.780;2022-11-03T08:19:43;7.77;;;2.20;;
15929;SDS011;8064;51.142;4.780;2022-11-03T08:22:09;5.87;;;1.80;;
15929;SDS011;8064;51.142;4.780;2022-11-03T08:24:35;8.60;;;2.10;;
15929;SDS011;8064;51.142;4.780;2022-11-03T08:27:00;8.17;;;2.00;;
15929;SDS011;8064;51.142;4.780;2022-11-03T08:29:27;6.20;;;2.00;;
15929;SDS011;8064;51.142;4.780;2022-11-03T08:31:53;7.30;;;2.13;;
15929;SDS011;8064;51.142;4.780;2022-11-03T08:34:20;10.07;;;2.37;;
15929;SDS011;8064;51.142;4.780;2022-11-03T08:36:46;7.33;;;2.13;;
15929;SDS011;8064;51.142;4.780;2022-11-03T08:39:12;10.30;;;2.23;;
15929;SDS011;8064;51.142;4.780;2022-11-03T08:41:38;9.33;;;2.00;;
15929;SDS011;8064;51.142;4.780;2022-11-03T08:44:03;8.10;;;2.17;;
15929;SDS011;8064;51.142;4.780;2022-11-03T08:46:30;8.37;;;2.63;;
15929;SDS011;8064;51.142;4.780;2022-11-03T08:48:58;6.67;;;2.20;;
15929;SDS011;8064;51.142;4.780;2022-11-03T08:51:27;8.63;;;2.10;;
15929;SDS011;8064;51.142;4.780;2022-11-03T08:53:53;7.93;;;2.30;;
15929;SDS011;8064;51.142;4.780;2022-11-03T08:56:20;6.50;;;2.30;;
15929;SDS011;8064;51.142;4.780;2022-11-03T08:58:46;6.43;;;1.87;;
15929;SDS011;8064;51.142;4.780;2022-11-03T09:01:12;5.03;;;1.70;;
15929;SDS011;8064;51.142;4.780;2022-11-03T09:03:39;8.40;;;1.77;;
15929;SDS011;8064;51.142;4.780;2022-11-03T09:06:07;6.23;;;2.03;;
15929;SDS011;8064;51.142;4.780;2022-11-03T09:08:34;8.97;;;2.30;;
15929;SDS011;8064;51.142;4.780;2022-11-03T09:11:00;5.60;;;1.80;;
15929;SDS011;8064;51.142;4.780;2022-11-03T09:13:25;6.40;;;2.00;;
15929;SDS011;8064;51.142;4.780;2022-11-03T09:15:51;7.13;;;2.03;;
15929;SDS011;8064;51.142;4.780;2022-11-03T09:18:17;8.60;;;1.87;;
15929;SDS011;8064;51.142;4.780;2022-11-03T09:20:42;5.83;;;1.90;;
15929;SDS011;8064;51.142;4.780;2022-11-03T09:23:08;5.87;;;2.00;;
15929;SDS011;8064;51.142;4.780;2022-11-03T09:25:34;8.17;;;2.30;;
15929;SDS011;8064;51.142;4.780;2022-11-03T09:28:01;4.77;;;1.60;;
15929;SDS011;8064;51.142;4.780;2022-11-03T09:30:26;6.93;;;1.90;;
15929;SDS011;8064;51.142;4.780;2022-11-03T09:32:53;5.47;;;1.90;;
15929;SDS011;8064;51.142;4.780;2022-11-03T09:35:18;5.50;;;2.13;;
15929;SDS011;8064;51.142;4.780;2022-11-03T09:37:44;3.70;;;1.60;;
15929;SDS011;8064;51.142;4.780;2022-11-03T09:40:10;5.63;;;1.83;;
15929;SDS011;8064;51.142;4.780;2022-11-03T09:42:39;4.83;;;2.10;;
15929;SDS011;8064;51.142;4.780;2022-11-03T09:45:07;7.27;;;2.03;;
15929;SDS011;8064;51.142;4.780;2022-11-03T09:47:35;4.63;;;1.70;;
15929;SDS011;8064;51.142;4.780;2022-11-03T09:50:03;6.33;;;1.90;;
15929;SDS011;8064;51.142;4.780;2022-11-03T09:52:30;4.57;;;1.80;;
15929;SDS011;8064;51.142;4.780;2022-11-03T09:54:58;5.40;;;1.60;;
15929;SDS011;8064;51.142;4.780;2022-11-03T09:57:26;6.97;;;2.00;;
15929;SDS011;8064;51.142;4.780;2022-11-03T09:59:54;7.17;;;1.70;;
15929;SDS011;8064;51.142;4.780;2022-11-03T10:02:23;7.40;;;1.77;;
15929;SDS011;8064;51.142;4.780;2022-11-03T10:04:55;6.50;;;1.50;;
15929;SDS011;8064;51.142;4.780;2022-11-03T10:07:22;5.03;;;1.60;;
15929;SDS011;8064;51.142;4.780;2022-11-03T10:09:52;7.60;;;2.20;;
15929;SDS011;8064;51.142;4.780;2022-11-03T10:12:22;9.60;;;1.90;;
15929;SDS011;8064;51.142;4.780;2022-11-03T10:14:51;6.90;;;1.90;;
15929;SDS011;8064;51.142;4.780;2022-11-03T10:17:20;7.23;;;1.70;;
15929;SDS011;8064;51.142;4.780;2022-11-03T10:19:50;6.40;;;2.10;;
15929;SDS011;8064;51.142;4.780;2022-11-03T10:22:20;3.90;;;1.50;;
15929;SDS011;8064;51.142;4.780;2022-11-03T10:24:47;11.47;;;1.90;;
15929;SDS011;8064;51.142;4.780;2022-11-03T10:27:22;6.23;;;1.53;;
15929;SDS011;8064;51.142;4.780;2022-11-03T10:32:31;4.17;;;1.77;;
15929;SDS011;8064;51.142;4.780;2022-11-03T10:34:58;7.03;;;1.63;;
15929;SDS011;8064;51.142;4.780;2022-11-03T10:37:25;5.47;;;2.10;;
15929;SDS011;8064;51.142;4.780;2022-11-03T10:39:52;5.97;;;1.53;;
15929;SDS011;8064;51.142;4.780;2022-11-03T10:44:47;5.00;;;1.77;;
15929;SDS011;8064;51.142;4.780;2022-11-03T10:47:22;4.23;;;1.60;;
15929;SDS011;8064;51.142;4.780;2022-11-03T10:49:49;3.93;;;1.50;;
15929;SDS011;8064;51.142;4.780;2022-11-03T10:54:46;5.73;;;1.70;;
15929;SDS011;8064;51.142;4.780;2022-11-03T10:57:13;4.10;;;1.57;;
15929;SDS011;8064;51.142;4.780;2022-11-03T10:59:41;4.57;;;1.83;;
15929;SDS011;8064;51.142;4.780;2022-11-03T11:02:18;4.23;;;1.70;;
15929;SDS011;8064;51.142;4.780;2022-11-03T11:04:47;5.87;;;2.10;;
15929;SDS011;8064;51.142;4.780;2022-11-03T11:07:20;5.83;;;1.83;;
15929;SDS011;8064;51.142;4.780;2022-11-03T11:09:56;5.23;;;1.90;;
15929;SDS011;8064;51.142;4.780;2022-11-03T11:12:30;6.43;;;1.77;;
15929;SDS011;8064;51.142;4.780;2022-11-03T11:15:00;4.83;;;1.33;;
15929;SDS011;8064;51.142;4.780;2022-11-03T11:17:41;6.20;;;2.27;;
15929;SDS011;8064;51.142;4.780;2022-11-03T11:22:45;3.57;;;1.40;;
15929;SDS011;8064;51.142;4.780;2022-11-03T11:25:11;4.90;;;1.30;;
15929;SDS011;8064;51.142;4.780;2022-11-03T11:30:03;3.50;;;1.40;;
15929;SDS011;8064;51.142;4.780;2022-11-03T11:35:09;4.87;;;1.90;;
15929;SDS011;8064;51.142;4.780;2022-11-03T11:37:41;4.70;;;1.63;;
15929;SDS011;8064;51.142;4.780;2022-11-03T11:40:13;4.73;;;1.37;;
15929;SDS011;8064;51.142;4.780;2022-11-03T11:51:26;6.63;;;1.60;;
15929;SDS011;8064;51.142;4.780;2022-11-03T11:53:56;6.83;;;1.67;;
15929;SDS011;8064;51.142;4.780;2022-11-03T11:56:22;4.53;;;1.53;;
15929;SDS011;8064;51.142;4.780;2022-11-03T11:58:51;10.10;;;1.50;;
15929;SDS011;8064;51.142;4.780;2022-11-03T12:01:30;4.37;;;1.60;;
15929;SDS011;8064;51.142;4.780;2022-11-03T12:04:04;4.17;;;1.60;;
15929;SDS011;8064;51.142;4.780;2022-11-03T12:06:44;4.10;;;1.70;;
15929;SDS011;8064;51.142;4.780;2022-11-03T12:09:17;4.17;;;1.50;;
15929;SDS011;8064;51.142;4.780;2022-11-03T12:11:49;3.83;;;1.83;;
15929;SDS011;8064;51.142;4.780;2022-11-03T12:16:58;3.20;;;1.43;;
15929;SDS011;8064;51.142;4.780;2022-11-03T12:19:44;4.73;;;1.50;;
15929;SDS011;8064;51.142;4.780;2022-11-03T12:24:55;4.37;;;1.87;;
15929;SDS011;8064;51.142;4.780;2022-11-03T12:29:52;2.60;;;1.27;;
15929;SDS011;8064;51.142;4.780;2022-11-03T12:32:19;3.40;;;1.30;;
15929;SDS011;8064;51.142;4.780;2022-11-03T12:34:45;5.03;;;1.40;;
15929;SDS011;8064;51.142;4.780;2022-11-03T12:37:11;4.50;;;1.60;;
15929;SDS011;8064;51.142;4.780;2022-11-03T12:39:37;4.10;;;1.23;;
15929;SDS011;8064;51.142;4.780;2022-11-03T12:42:02;6.27;;;1.43;;
15929;SDS011;8064;51.142;4.780;2022-11-03T12:44:29;5.03;;;1.57;;
15929;SDS011;8064;51.142;4.780;2022-11-03T12:46:55;5.17;;;1.53;;
15929;SDS011;8064;51.142;4.780;2022-11-03T12:49:21;3.13;;;1.23;;
15929;SDS011;8064;51.142;4.780;2022-11-03T12:51:46;6.30;;;1.40;;
15929;SDS011;8064;51.142;4.780;2022-11-03T12:54:12;5.50;;;1.50;;
15929;SDS011;8064;51.142;4.780;2022-11-03T12:56:38;3.13;;;1.43;;
15929;SDS011;8064;51.142;4.780;2022-11-03T12:59:03;3.13;;;1.27;;
15929;SDS011;8064;51.142;4.780;2022-11-03T13:01:29;4.33;;;1.40;;
15929;SDS011;8064;51.142;4.780;2022-11-03T13:03:57;4.03;;;1.40;;
15929;SDS011;8064;51.142;4.780;2022-11-03T13:06:23;3.43;;;1.20;;
15929;SDS011;8064;51.142;4.780;2022-11-03T13:08:48;4.60;;;1.33;;
15929;SDS011;8064;51.142;4.780;2022-11-03T13:11:14;2.57;;;1.33;;
15929;SDS011;8064;51.142;4.780;2022-11-03T13:13:58;5.67;;;1.73;;
15929;SDS011;8064;51.142;4.780;2022-11-03T13:16:24;5.40;;;1.40;;
15929;SDS011;8064;51.142;4.780;2022-11-03T13:18:50;5.53;;;1.37;;
15929;SDS011;8064;51.142;4.780;2022-11-03T13:21:16;3.10;;;1.40;;
15929;SDS011;8064;51.142;4.780;2022-11-03T13:23:42;4.30;;;1.70;;
15929;SDS011;8064;51.142;4.780;2022-11-03T13:26:08;4.53;;;1.80;;
15929;SDS011;8064;51.142;4.780;2022-11-03T13:28:34;6.90;;;1.80;;
15929;SDS011;8064;51.142;4.780;2022-11-03T13:31:00;4.33;;;1.40;;
15929;SDS011;8064;51.142;4.780;2022-11-03T13:33:26;3.83;;;1.33;;
15929;SDS011;8064;51.142;4.780;2022-11-03T13:35:52;2.67;;;1.60;;
15929;SDS011;8064;51.142;4.780;2022-11-03T13:38:17;3.10;;;1.70;;
15929;SDS011;8064;51.142;4.780;2022-11-03T13:40:43;4.30;;;1.60;;
15929;SDS011;8064;51.142;4.780;2022-11-03T13:43:09;4.63;;;1.60;;
15929;SDS011;8064;51.142;4.780;2022-11-03T13:45:36;5.00;;;1.50;;
15929;SDS011;8064;51.142;4.780;2022-11-03T13:48:02;4.73;;;1.70;;
15929;SDS011;8064;51.142;4.780;2022-11-03T13:50:28;4.70;;;1.43;;
15929;SDS011;8064;51.142;4.780;2022-11-03T13:52:54;4.73;;;1.90;;
15929;SDS011;8064;51.142;4.780;2022-11-03T13:55:19;3.27;;;1.33;;
15929;SDS011;8064;51.142;4.780;2022-11-03T13:57:46;8.13;;;1.80;;
15929;SDS011;8064;51.142;4.780;2022-11-03T14:00:12;5.37;;;1.53;;
15929;SDS011;8064;51.142;4.780;2022-11-03T14:02:40;4.83;;;1.60;;
15929;SDS011;8064;51.142;4.780;2022-11-03T14:05:05;2.67;;;1.47;;
15929;SDS011;8064;51.142;4.780;2022-11-03T14:07:31;4.83;;;1.80;;
15929;SDS011;8064;51.142;4.780;2022-11-03T14:09:58;4.63;;;1.40;;
15929;SDS011;8064;51.142;4.780;2022-11-03T14:12:24;4.47;;;1.70;;
15929;SDS011;8064;51.142;4.780;2022-11-03T14:14:58;3.53;;;1.37;;
15929;SDS011;8064;51.142;4.780;2022-11-03T14:17:25;3.30;;;1.80;;
15929;SDS011;8064;51.142;4.780;2022-11-03T14:19:51;3.40;;;1.50;;
15929;SDS011;8064;51.142;4.780;2022-11-03T14:22:18;3.23;;;1.57;;
15929;SDS011;8064;51.142;4.780;2022-11-03T14:24:44;2.33;;;1.37;;
15929;SDS011;8064;51.142;4.780;2022-11-03T14:27:10;4.43;;;1.57;;
15929;SDS011;8064;51.142;4.780;2022-11-03T14:29:37;6.77;;;1.73;;
15929;SDS011;8064;51.142;4.780;2022-11-03T14:32:04;5.00;;;1.47;;
15929;SDS011;8064;51.142;4.780;2022-11-03T14:34:30;4.87;;;1.70;;
15929;SDS011;8064;51.142;4.780;2022-11-03T14:36:56;4.70;;;1.80;;
15929;SDS011;8064;51.142;4.780;2022-11-03T14:39:21;2.97;;;1.50;;
15929;SDS011;8064;51.142;4.780;2022-11-03T14:41:47;4.97;;;1.60;;
15929;SDS011;8064;51.142;4.780;2022-11-03T14:44:31;5.33;;;1.53;;
15929;SDS011;8064;51.142;4.780;2022-11-03T14:47:02;4.57;;;1.80;;
15929;SDS011;8064;51.142;4.780;2022-11-03T14:49:30;4.10;;;1.60;;
15929;SDS011;8064;51.142;4.780;2022-11-03T14:51:58;2.43;;;1.53;;
15929;SDS011;8064;51.142;4.780;2022-11-03T14:54:25;3.73;;;1.43;;
15929;SDS011;8064;51.142;4.780;2022-11-03T14:56:52;4.37;;;2.03;;
15929;SDS011;8064;51.142;4.780;2022-11-03T14:59:18;4.60;;;1.93;;
15929;SDS011;8064;51.142;4.780;2022-11-03T15:01:44;3.80;;;1.70;;
15929;SDS011;8064;51.142;4.780;2022-11-03T15:04:11;5.00;;;1.90;;
15929;SDS011;8064;51.142;4.780;2022-11-03T15:06:37;3.97;;;1.90;;
15929;SDS011;8064;51.142;4.780;2022-11-03T15:09:04;2.93;;;1.60;;
15929;SDS011;8064;51.142;4.780;2022-11-03T15:11:31;3.63;;;1.90;;
15929;SDS011;8064;51.142;4.780;2022-11-03T15:13:57;4.30;;;1.83;;
15929;SDS011;8064;51.142;4.780;2022-11-03T15:16:23;2.67;;;1.60;;
15929;SDS011;8064;51.142;4.780;2022-11-03T15:18:49;5.97;;;1.90;;
15929;SDS011;8064;51.142;4.780;2022-11-03T15:21:15;4.30;;;1.97;;
15929;SDS011;8064;51.142;4.780;2022-11-03T15:23:41;3.57;;;1.70;;
15929;SDS011;8064;51.142;4.780;2022-11-03T15:26:07;5.43;;;1.70;;
15929;SDS011;8064;51.142;4.780;2022-11-03T15:28:33;2.97;;;1.93;;
15929;SDS011;8064;51.142;4.780;2022-11-03T15:30:59;2.40;;;1.83;;
15929;SDS011;8064;51.142;4.780;2022-11-03T15:33:26;3.73;;;1.90;;
15929;SDS011;8064;51.142;4.780;2022-11-03T15:35:52;3.07;;;1.93;;
15929;SDS011;8064;51.142;4.780;2022-11-03T15:38:18;8.23;;;2.40;;
15929;SDS011;8064;51.142;4.780;2022-11-03T15:40:44;5.00;;;1.60;;
15929;SDS011;8064;51.142;4.780;2022-11-03T15:43:09;3.17;;;1.67;;
15929;SDS011;8064;51.142;4.780;2022-11-03T15:45:35;3.47;;;2.03;;
15929;SDS011;8064;51.142;4.780;2022-11-03T15:48:02;2.90;;;1.80;;
15929;SDS011;8064;51.142;4.780;2022-11-03T15:50:28;5.97;;;1.97;;
15929;SDS011;8064;51.142;4.780;2022-11-03T15:52:54;3.30;;;2.20;;
15929;SDS011;8064;51.142;4.780;2022-11-03T15:55:20;5.97;;;2.27;;
15929;SDS011;8064;51.142;4.780;2022-11-03T15:57:47;1.93;;;1.60;;
15929;SDS011;8064;51.142;4.780;2022-11-03T16:00:13;5.13;;;2.13;;
15929;SDS011;8064;51.142;4.780;2022-11-03T16:02:42;4.17;;;2.30;;
15929;SDS011;8064;51.142;4.780;2022-11-03T16:05:27;6.37;;;2.30;;
15929;SDS011;8064;51.142;4.780;2022-11-03T16:07:53;4.07;;;1.97;;
15929;SDS011;8064;51.142;4.780;2022-11-03T16:10:18;4.10;;;1.90;;
15929;SDS011;8064;51.142;4.780;2022-11-03T16:12:47;4.80;;;2.20;;
15929;SDS011;8064;51.142;4.780;2022-11-03T16:15:20;4.13;;;2.33;;
15929;SDS011;8064;51.142;4.780;2022-11-03T16:17:52;5.03;;;2.17;;
15929;SDS011;8064;51.142;4.780;2022-11-03T16:20:27;4.20;;;2.30;;
15929;SDS011;8064;51.142;4.780;2022-11-03T16:22:54;4.47;;;2.20;;